地図

経路データ

SID SEASON NUMBER BASIN SUBBASIN NAME ISO_TIME NATURE LAT LON WMO_WIND WMO_PRES WMO_AGENCY TRACK_TYPE DIST2LAND LANDFALL IFLAG USA_AGENCY USA_ATCF_ID USA_LAT USA_LON USA_RECORD USA_STATUS USA_WIND USA_PRES USA_SSHS USA_R34_NE USA_R34_SE USA_R34_SW USA_R34_NW USA_R50_NE USA_R50_SE USA_R50_SW USA_R50_NW USA_R64_NE USA_R64_SE USA_R64_SW USA_R64_NW USA_POCI USA_ROCI USA_RMW USA_EYE TOKYO_LAT TOKYO_LON TOKYO_GRADE TOKYO_WIND TOKYO_PRES TOKYO_R50_DIR TOKYO_R50_LONG TOKYO_R50_SHORT TOKYO_R30_DIR TOKYO_R30_LONG TOKYO_R30_SHORT TOKYO_LAND CMA_LAT CMA_LON CMA_CAT CMA_WIND CMA_PRES HKO_LAT HKO_LON HKO_CAT HKO_WIND HKO_PRES NEWDELHI_LAT NEWDELHI_LON NEWDELHI_GRADE NEWDELHI_WIND NEWDELHI_PRES NEWDELHI_CI NEWDELHI_DP NEWDELHI_POCI REUNION_LAT REUNION_LON REUNION_TYPE REUNION_WIND REUNION_PRES REUNION_TNUM REUNION_CI REUNION_RMW REUNION_R34_NE REUNION_R34_SE REUNION_R34_SW REUNION_R34_NW REUNION_R50_NE REUNION_R50_SE REUNION_R50_SW REUNION_R50_NW REUNION_R64_NE REUNION_R64_SE REUNION_R64_SW REUNION_R64_NW BOM_LAT BOM_LON BOM_TYPE BOM_WIND BOM_PRES BOM_TNUM BOM_CI BOM_RMW BOM_R34_NE BOM_R34_SE BOM_R34_SW BOM_R34_NW BOM_R50_NE BOM_R50_SE BOM_R50_SW BOM_R50_NW BOM_R64_NE BOM_R64_SE BOM_R64_SW BOM_R64_NW BOM_ROCI BOM_POCI BOM_EYE BOM_POS_METHOD BOM_PRES_METHOD NADI_LAT NADI_LON NADI_CAT NADI_WIND NADI_PRES WELLINGTON_LAT WELLINGTON_LON WELLINGTON_WIND WELLINGTON_PRES DS824_LAT DS824_LON DS824_STAGE DS824_WIND DS824_PRES TD9636_LAT TD9636_LON TD9636_STAGE TD9636_WIND TD9636_PRES TD9635_LAT TD9635_LON TD9635_WIND TD9635_PRES TD9635_ROCI NEUMANN_LAT NEUMANN_LON NEUMANN_CLASS NEUMANN_WIND NEUMANN_PRES MLC_LAT MLC_LON MLC_CLASS MLC_WIND MLC_PRES USA_GUST BOM_GUST BOM_GUST_PER REUNION_GUST REUNION_GUST_PER USA_SEAHGT USA_SEARAD_NE USA_SEARAD_SE USA_SEARAD_SW USA_SEARAD_NW STORM_SPEED STORM_DIR
1985268N03161 1985 94 WP MM BRENDAN 1985-09-25 00:00:00 NR 3.40000 161.200 main 1215 1184 __________O___ -1 3.40000 161.200 0 26 292
1985268N03161 1985 94 WP MM BRENDAN 1985-09-25 03:00:00 NR 3.88367 159.991 main 1185 1135 __________P___ -1 3.88367 159.991 0 26 292
1985268N03161 1985 94 WP MM BRENDAN 1985-09-25 06:00:00 NR 4.36840 158.781 main 1144 1100 __________P___ -1 4.36840 158.781 0 26 292
1985268N03161 1985 94 WP MM BRENDAN 1985-09-25 09:00:00 NR 4.85577 157.572 main 1110 1077 __________P___ -1 4.85577 157.572 0 26 292
1985268N03161 1985 94 WP MM BRENDAN 1985-09-25 12:00:00 NR 5.34755 156.366 main 1077 1065 __________P___ -1 5.34755 156.366 0 26 292
1985268N03161 1985 94 WP MM BRENDAN 1985-09-25 15:00:00 NR 5.84567 155.165 main 1065 1062 __________P___ -1 5.84567 155.165 0 26 293
1985268N03161 1985 94 WP MM BRENDAN 1985-09-25 18:00:00 NR 6.35223 153.970 main 1076 1069 __________P___ -1 6.35223 153.970 0 26 293
1985268N03161 1985 94 WP MM BRENDAN 1985-09-25 21:00:00 NR 6.86952 152.782 main 1096 1092 __________P___ -1 6.86952 152.782 0 26 294
1985268N03161 1985 94 WP MM BRENDAN 1985-09-26 00:00:00 NR 7.40000 151.600 main 1134 1133 __________O___ -1 7.40000 151.600 0 26 295
1985268N03161 1985 94 WP MM BRENDAN 1985-09-26 03:00:00 NR 7.94930 150.428 main 1169 1169 __________P___ -1 7.94930 150.428 0 26 296
1985268N03161 1985 94 WP MM BRENDAN 1985-09-26 06:00:00 NR 8.53512 149.277 main 1206 1206 __________P___ -1 8.53512 149.277 0 26 299
1985268N03161 1985 94 WP MM BRENDAN 1985-09-26 09:00:00 NR 9.17833 148.163 main 1269 1268 __________P___ -1 9.17833 148.163 0 26 302
1985268N03161 1985 94 WP MM BRENDAN 1985-09-26 12:00:00 NR 9.90000 147.100 main 1344 1344 __________O___ -1 9.90000 147.100 0 27 308
1985268N03161 1985 94 WP MM BRENDAN 1985-09-26 15:00:00 NR 10.8219 146.026 main 1446 1446 __________P___ -1 10.8219 146.026 0 28 313
1985268N03161 1985 94 WP MM BRENDAN 1985-09-26 18:00:00 NR 11.8047 145.010 main 1567 1567 __________P___ -1 11.8047 145.010 0 27 315
1985268N03161 1985 94 WP MM BRENDAN 1985-09-26 21:00:00 NR 12.7351 144.089 main 1681 1681 __________P___ -1 12.7351 144.089 0 24 315
1985268N03161 1985 94 WP MM BRENDAN 1985-09-27 00:00:00 NR 13.5000 143.300 main 1782 1782 __________O___ -1 13.5000 143.300 0 18 312
1985268N03161 1985 94 WP MM BRENDAN 1985-09-27 03:00:00 NR 13.9561 142.697 main 1816 1813 __________P___ -1 13.9561 142.697 0 13 305
1985268N03161 1985 94 WP MM BRENDAN 1985-09-27 06:00:00 NR 14.2417 142.226 main 1815 1777 __________P___ -1 14.2417 142.226 0 10 299
1985268N03161 1985 94 WP MM BRENDAN 1985-09-27 09:00:00 NR 14.4316 141.817 main 1777 1739 __________P___ -1 14.4316 141.817 0 9 294
1985268N03161 1985 94 WP MM BRENDAN 1985-09-27 12:00:00 NR 14.6000 141.400 main 1739 1690 __________O___ -1 14.6000 141.400 0 10 295
1985268N03161 1985 94 WP MM BRENDAN 1985-09-27 15:00:00 NR 14.8446 140.887 main 1690 1641 __________P___ -1 14.8446 140.887 0 11 296
1985268N03161 1985 94 WP MM BRENDAN 1985-09-27 18:00:00 NR 15.0843 140.351 main 1642 1583 __________P___ -1 15.0843 140.351 0 12 295
1985268N03161 1985 94 WP MM BRENDAN 1985-09-27 21:00:00 NR 15.3319 139.790 main 1583 1527 __________P___ -1 15.3319 139.790 0 12 295
1985268N03161 1985 94 WP MM BRENDAN 1985-09-28 00:00:00 NR 15.6000 139.200 main 1527 1472 __________O___ -1 15.6000 139.200 0 13 298
1985268N03161 1985 94 WP MM BRENDAN 1985-09-28 03:00:00 NR 15.9516 138.596 main 1475 1423 __________P___ -1 15.9516 138.596 0 14 301
1985268N03161 1985 94 WP MM BRENDAN 1985-09-28 06:00:00 NR 16.3166 137.961 main 1423 1363 __________P___ -1 16.3166 137.961 0 14 299
1985268N03161 1985 94 WP MM BRENDAN 1985-09-28 09:00:00 NR 16.6483 137.296 main 1363 1305 __________P___ -1 16.6483 137.296 0 14 294
1985268N03161 1985 94 WP MM BRENDAN 1985-09-28 12:00:00 NR 16.9000 136.600 main 1305 1241 __________O___ -1 16.9000 136.600 0 15 285
1985268N03161 1985 94 WP MM BRENDAN 1985-09-28 15:00:00 NR 17.0367 135.809 main 1231 1159 __________P___ -1 17.0367 135.809 0 15 277
1985268N03161 1985 94 WP MM BRENDAN 1985-09-28 18:00:00 NR 17.0867 135.001 main 1159 1094 __________P___ -1 17.0867 135.001 0 15 271
1985268N03161 1985 94 WP MM BRENDAN 1985-09-28 21:00:00 NR 17.0681 134.243 main 1084 1042 __________P___ -1 17.0681 134.243 0 12 266
1985268N03161 1985 94 WP MM BRENDAN 1985-09-29 00:00:00 TS 17.0000 133.740 main 1033 990 __O_______O___ -1 17.0000 134.300 1 23 1003 17.0000 133.600 0 9 257
1985268N03161 1985 94 WP MM BRENDAN 1985-09-29 03:00:00 TS 16.8651 133.318 main 990 951 __P_______P___ -1 16.7706 133.650 1 23 1003 16.9124 133.153 0 8 249
1985268N03161 1985 94 WP MM BRENDAN 1985-09-29 06:00:00 TS 16.7053 132.936 main 942 909 O_O_______P___ jtwc_wp WP201985 16.7000 132.900 20 -1 16.6000 133.100 1 23 1003 16.7855 132.822 0 7 247
1985268N03161 1985 94 WP MM BRENDAN 1985-09-29 09:00:00 TS 16.5843 132.630 main 909 885 P_P_______P___ WP201985 16.5850 132.612 20 -1 16.5272 132.713 1 23 1002 16.6410 132.556 0 6 250
1985268N03161 1985 94 WP MM BRENDAN 1985-09-29 12:00:00 TS 16.5000 132.336 main 876 843 O_O_______O___ jtwc_wp WP201985 16.5000 132.300 20 -1 16.5000 132.400 1 23 1002 16.5000 132.300 1 20 6 256
1985268N03161 1985 94 WP MM BRENDAN 1985-09-29 15:00:00 TS 16.4330 131.982 main 843 817 P_P_______P___ WP201985 16.4575 131.950 22 -1 16.4649 132.050 1 23 1002 16.3767 131.947 1 21 7 258
1985268N03161 1985 94 WP MM BRENDAN 1985-09-29 18:00:00 TS 16.3542 131.632 main 808 769 O_O_______P___ jtwc_wp WP201985 16.4000 131.600 25 -1 16.4000 131.700 1 23 1002 16.2627 131.597 1 22 7 253
1985268N03161 1985 94 WP MM BRENDAN 1985-09-29 21:00:00 TS 16.2250 131.291 main 769 736 P_P_______P___ WP201985 16.2500 131.270 25 -1 16.2575 131.327 1 26 1000 16.1673 131.275 1 23 7 247
1985268N03161 1985 94 WP MM BRENDAN 1985-09-30 00:00:00 TS 16.0923 130.992 1000 tokyo main 736 712 OOO_______O___ jtwc_wp WP201985 16.1000 131.000 25 -1 16.0000 130.900 2 1000 0 0 0 16.1000 131.000 1 29 998 16.1000 131.000 1 25 5 245
1985268N03161 1985 94 WP MM BRENDAN 1985-09-30 03:00:00 TS 16.0018 130.790 main 712 695 PPP_______P___ WP201985 16.0199 130.828 27 -1 15.9400 130.695 2 998 0 0 15.9699 130.793 1 29 997 16.0466 130.796 1 27 4 249
1985268N03161 1985 94 WP MM BRENDAN 1985-09-30 06:00:00 TS 15.9562 130.616 996 tokyo main 695 678 OOOO______P___ jtwc_wp WP201985 16.0000 130.700 30 -1 15.9000 130.500 2 996 0 0 0 15.9000 130.600 1 29 996 15.9000 130.600 TD 30 995 16.0247 130.640 1 30 4 263
1985268N03161 1985 94 WP MM BRENDAN 1985-09-30 09:00:00 TS 15.9576 130.414 main 678 670 PPPP______P___ WP201985 16.0275 130.550 32 -1 15.8925 130.328 2 996 0 0 15.9351 130.270 1 33 995 15.8275 130.397 TD 32 994 16.0404 130.514 1 32 4 275
1985268N03161 1985 94 WP MM BRENDAN 1985-09-30 12:00:00 TS 15.9895 130.242 35 996 tokyo main 661 653 OOOO______O___ jtwc_wp WP201985 16.1000 130.400 35 0 15.9000 130.200 3 35 996 0 9 100 100 0 16.0000 130.000 2 38 995 15.8000 130.200 TS 35 994 16.1000 130.400 2 35 3 282
1985268N03161 1985 94 WP MM BRENDAN 1985-09-30 15:00:00 TS 16.0155 130.128 main 653 653 PPPP______P___ WP201985 16.1775 130.242 40 0 15.8550 130.142 3 37 995 0 9 100 100 16.0074 129.955 2 38 995 15.8550 130.020 TS 37 993 16.1824 130.280 2 40 2 302
1985268N03161 1985 94 WP MM BRENDAN 1985-09-30 18:00:00 TS 16.1020 130.053 40 994 tokyo main 660 650 OOOO______P___ jtwc_wp WP201985 16.3000 130.100 45 0 15.9000 130.100 3 40 994 0 9 100 100 0 16.0000 130.000 2 38 995 16.0000 129.900 TS 40 993 16.3099 130.165 2 45 3 329
1985268N03161 1985 94 WP MM BRENDAN 1985-09-30 21:00:00 TS 16.2310 129.996 main 654 653 PPPP______P___ WP201985 16.4625 130.000 50 0 16.1400 130.022 3 50 992 0 9 150 125 15.8875 130.030 2 48 992 16.1825 129.885 TS 45 992 16.4824 130.042 2 50 4 342
1985268N03161 1985 94 WP MM BRENDAN 1985-10-01 00:00:00 TS 16.4800 129.920 60 990 tokyo main 658 658 OOOO______O___ jtwc_wp WP201985 16.7000 129.900 55 0 16.5000 129.900 4 60 990 4 100 50 4 200 150 0 16.0000 130.000 3 58 990 16.5000 129.900 STS 50 992 16.7000 129.900 2 55 8 344
1985268N03161 1985 94 WP MM BRENDAN 1985-10-01 03:00:00 TS 16.9580 129.786 main 674 671 PPPP______P___ WP201985 17.0425 129.772 57 0 16.9075 129.708 4 60 990 4 100 50 4 225 200 16.7050 129.838 3 58 990 17.0875 129.880 STS 52 991 17.0477 129.732 2 56 10 343
1985268N03161 1985 94 WP MM BRENDAN 1985-10-01 06:00:00 TS 17.4445 129.608 60 990 tokyo main 680 680 OOOO______P___ jtwc_wp WP201985 17.4000 129.600 60 0 17.3000 129.500 4 60 990 4 100 50 9 250 250 0 17.5000 129.600 3 58 990 17.6000 129.800 STS 55 990 17.4227 129.542 2 57 9 335
1985268N03161 1985 94 WP MM BRENDAN 1985-10-01 09:00:00 TS 17.7348 129.402 main 683 673 PPPP______P___ WP201985 17.7175 129.365 60 0 17.6249 129.357 4 62 987 4 100 50 9 250 250 17.9200 129.342 3 58 988 17.6750 129.615 STS 55 987 17.7363 129.330 2 58 6 316
1985268N03161 1985 94 WP MM BRENDAN 1985-10-01 12:00:00 TS 17.8600 129.180 65 985 tokyo main 681 649 OOOO______O___ jtwc_wp WP201985 17.9000 129.100 60 0 17.8000 129.200 5 65 985 4 100 50 9 250 250 0 18.1000 129.100 3 58 986 17.6000 129.400 STS 55 985 17.9000 129.100 2 60 5 282
1985268N03161 1985 94 WP MM BRENDAN 1985-10-01 15:00:00 TS 17.8315 128.931 main 649 634 PPPP______P___ WP201985 17.8301 128.790 62 0 17.7451 128.912 5 65 985 4 100 50 9 250 250 18.1250 128.920 3 58 984 17.6425 129.243 STS 55 984 17.8148 128.789 2 62 4 253
1985268N03161 1985 94 WP MM BRENDAN 1985-10-01 18:00:00 TS 17.7400 128.760 65 985 tokyo main 634 634 OOOO______O___ jtwc_wp WP201985 17.7000 128.600 65 1 17.6000 128.700 5 65 985 4 100 50 9 250 250 0 18.0000 128.800 3 58 982 17.7000 129.100 STS 55 983 17.7000 128.600 3 65 2 214
1985268N03161 1985 94 WP MM BRENDAN 1985-10-01 21:00:00 TS 17.6676 128.811 main 634 634 PPPP______P___ WP201985 17.6900 128.765 67 1 17.4824 128.815 5 67 982 4 125 100 9 275 275 17.7324 128.765 3 58 981 17.7274 128.972 STS 57 982 17.7059 128.738 3 67 1 117
1985268N03161 1985 94 WP MM BRENDAN 1985-10-02 00:00:00 TS 17.7000 128.840 70 980 tokyo main 634 633 OOOO______O___ jtwc_wp WP201985 17.8000 128.900 70 1 17.5000 128.900 5 70 980 9 150 150 9 300 300 0 17.6000 128.700 3 58 981 17.8000 128.800 STS 60 982 17.8000 128.900 4 70 3 327
1985268N03161 1985 94 WP MM BRENDAN 1985-10-02 03:00:00 TS 17.9572 128.615 main 641 629 PPPP______P___ WP201985 18.0775 128.640 72 1 17.8125 128.640 5 70 980 9 150 150 9 350 350 17.9474 128.518 3 58 980 17.9699 128.545 STS 60 981 17.9786 128.730 4 72 8 315
1985268N03161 1985 94 WP MM BRENDAN 1985-10-02 06:00:00 TS 18.2865 128.231 70 980 tokyo main 621 580 OOOO______P___ jtwc_wp WP201985 18.4000 128.200 75 1 18.2000 128.200 5 70 980 9 150 150 9 400 400 0 18.4000 128.200 3 58 980 18.2000 128.200 STS 60 980 18.2323 128.353 4 75 10 305
1985268N03161 1985 94 WP MM BRENDAN 1985-10-02 09:00:00 TS 18.5115 127.766 main 580 528 PPPP______P___ WP201985 18.6224 127.772 77 1 18.4077 127.700 5 75 977 9 150 150 9 400 400 18.5652 127.722 3 58 980 18.4424 127.787 STS 60 977 18.5197 127.850 4 77 10 295
1985268N03161 1985 94 WP MM BRENDAN 1985-10-02 12:00:00 TS 18.7200 127.260 80 975 tokyo main 528 477 OOOO______O___ jtwc_wp WP201985 18.8000 127.300 80 1 18.6000 127.200 5 80 975 9 150 150 9 400 400 0 18.7000 127.200 3 58 980 18.7000 127.300 STS 60 975 18.8000 127.300 4 80 10 295
1985268N03161 1985 94 WP MM BRENDAN 1985-10-02 15:00:00 TS 18.9410 126.810 main 477 438 PPPP______P___ WP201985 18.9424 126.807 80 1 18.8920 126.865 5 80 972 9 150 150 9 400 400 18.9698 126.792 3 63 977 18.9350 126.765 STS 62 972 18.9657 126.823 4 81 10 298
1985268N03161 1985 94 WP MM BRENDAN 1985-10-02 18:00:00 TS 19.1850 126.344 80 970 tokyo main 430 394 OOOO______P___ jtwc_wp WP201985 19.1000 126.300 80 1 19.2000 126.500 5 80 970 9 150 150 9 400 400 0 19.3000 126.400 4 68 975 19.2000 126.200 T 65 970 19.1251 126.320 4 82 11 298
1985268N03161 1985 94 WP MM BRENDAN 1985-10-02 21:00:00 TS 19.4449 125.827 main 384 347 PPPP______P___ WP201985 19.3049 125.800 82 1 19.4278 125.922 5 80 967 9 175 175 9 400 400 19.6348 125.980 4 72 972 19.5350 125.628 T 70 967 19.3219 125.807 4 83 11 300
1985268N03161 1985 94 WP MM BRENDAN 1985-10-03 00:00:00 TS 19.7600 125.300 80 965 tokyo main 351 324 OOOO______O___ jtwc_wp WP201985 19.6000 125.300 85 2 19.7000 125.300 5 80 965 9 200 200 9 400 400 0 20.0000 125.500 4 77 970 19.9000 125.100 T 75 965 19.6000 125.300 4 85 12 305
1985268N03161 1985 94 WP MM BRENDAN 1985-10-03 03:00:00 TS 20.1362 124.780 main 324 313 PPPP______P___ WP201985 20.0049 124.792 87 2 20.1122 124.785 5 80 965 9 200 200 9 400 400 20.3704 124.870 4 77 967 20.2197 124.684 T 77 965 19.9735 124.770 4 86 13 311
1985268N03161 1985 94 WP MM BRENDAN 1985-10-03 06:00:00 TS 20.5871 124.291 80 965 tokyo main 323 316 OOOO______P___ jtwc_wp WP201985 20.5000 124.300 90 2 20.6000 124.300 5 80 965 9 200 200 9 400 400 0 20.8000 124.300 4 77 965 20.6000 124.300 T 80 965 20.4357 124.254 4 87 13 317
1985268N03161 1985 94 WP MM BRENDAN 1985-10-03 09:00:00 TS 21.1020 123.833 main 313 270 PPPP______P___ WP201985 21.0126 123.805 90 2 21.0702 123.748 5 77 965 9 200 175 9 400 350 21.3270 124.012 4 77 964 21.1202 123.813 T 80 962 20.9799 123.786 4 88 13 325
1985268N03161 1985 94 WP MM BRENDAN 1985-10-03 12:00:00 TS 21.6800 123.460 75 965 tokyo main 266 210 OOOO______O___ jtwc_wp WP201985 21.6000 123.400 90 2 21.6000 123.300 5 75 965 8 200 150 8 400 300 0 21.9000 123.800 4 77 964 21.7000 123.400 T 80 960 21.6000 123.400 4 90 13 333
1985268N03161 1985 94 WP MM BRENDAN 1985-10-03 15:00:00 TS 22.2723 123.193 main 205 165 PPPP______P___ WP201985 22.2623 123.155 90 2 22.2048 123.089 5 75 962 8 200 150 8 400 300 22.4201 123.443 4 77 962 22.2048 123.189 T 80 960 22.2694 123.090 4 90 13 342
1985268N03161 1985 94 WP MM BRENDAN 1985-10-03 18:00:00 TS 22.9419 123.014 75 960 tokyo main 165 135 OOOO______P___ jtwc_wp WP201985 23.0000 123.000 90 2 22.9000 123.000 5 75 960 8 200 150 8 400 300 0 23.0000 123.100 4 77 960 22.8000 123.100 T 80 960 23.0093 122.871 4 90 15 349
1985268N03161 1985 94 WP MM BRENDAN 1985-10-03 21:00:00 TS 23.7134 122.885 main 135 91 PPPP______P___ WP201985 23.8000 122.828 90 2 23.6550 122.907 5 80 957 8 200 150 8 400 300 23.7049 122.877 4 77 961 23.6124 123.072 T 80 960 23.7946 122.741 4 90 16 352
1985268N03161 1985 94 WP MM BRENDAN 1985-10-04 00:00:00 TS 24.5400 122.780 85 955 tokyo main 91 60 OOOO______O___ jtwc_wp WP201985 24.6000 122.700 90 2 24.5000 122.800 5 85 955 8 200 150 8 400 300 0 24.5000 122.700 4 77 962 24.5000 123.000 T 80 960 24.6000 122.700 4 90 17 349
1985268N03161 1985 94 WP MM BRENDAN 1985-10-04 03:00:00 TS 25.3533 122.548 main 67 67 PPPP______P___ WP201985 25.2849 122.583 90 2 25.4798 122.498 5 85 957 8 200 150 8 400 300 25.3424 122.397 4 77 963 25.3076 122.613 T 80 962 25.3520 122.649 4 88 17 351
1985268N03161 1985 94 WP MM BRENDAN 1985-10-04 06:00:00 TS 26.1646 122.479 85 960 tokyo main 143 143 OOOO______P___ jtwc_wp WP201985 26.0000 122.600 90 2 26.4000 122.400 5 85 960 8 200 150 8 400 300 0 26.2000 122.300 4 77 965 26.1000 122.400 T 80 965 26.1230 122.695 4 87 16 8
1985268N03161 1985 94 WP MM BRENDAN 1985-10-04 09:00:00 TS 26.9241 122.800 main 195 177 PPPP______P___ WP201985 26.8624 122.810 87 2 26.9778 122.866 5 85 960 8 200 162 8 400 300 26.9774 122.658 4 77 965 26.8702 122.799 T 77 967 26.9325 122.868 4 86 18 26
1985268N03161 1985 94 WP MM BRENDAN 1985-10-04 12:00:00 TS 27.7400 123.360 85 960 tokyo main 188 185 OOOO______O___ jtwc_wp WP201985 27.8000 123.200 85 2 27.6000 123.600 5 85 960 8 200 175 8 400 300 0 27.8000 123.300 4 77 965 27.7000 123.500 T 75 970 27.8000 123.200 4 85 21 30
1985268N03161 1985 94 WP MM BRENDAN 1985-10-04 15:00:00 TS 28.6954 123.957 main 202 199 PPPP______P___ WP201985 28.7270 123.669 82 1 28.6102 124.300 5 85 960 8 200 175 8 400 300 28.7547 123.984 4 72 970 28.6397 124.157 T 72 975 28.7454 123.676 4 81 23 30
1985268N03161 1985 94 WP MM BRENDAN 1985-10-04 18:00:00 TS 29.7490 124.664 85 960 tokyo main 266 266 OOOO______P___ jtwc_wp WP201985 29.7000 124.300 80 1 29.8000 125.000 5 85 960 1 200 175 1 400 300 0 29.8000 124.800 4 68 975 29.7000 124.900 T 70 980 29.7451 124.321 4 77 25 31
1985268N03161 1985 94 WP MM BRENDAN 1985-10-04 21:00:00 TS 30.8701 125.443 main 270 144 PPPP______P___ WP201985 30.7423 125.083 75 1 31.0287 125.572 5 77 970 1 162 137 1 325 250 30.8999 125.720 4 63 977 30.9075 125.734 T 70 980 30.7722 125.105 4 73 27 32
1985268N03161 1985 94 WP MM BRENDAN 1985-10-05 00:00:00 TS 31.9895 126.316 70 980 tokyo main 133 50 OOOO______O___ jtwc_wp WP201985 31.8000 126.000 70 1 32.2000 126.200 5 70 980 2 125 100 2 250 200 0 32.0000 126.700 3 58 980 32.1000 126.600 T 70 980 31.8000 126.000 4 70 27 35
1985268N03161 1985 94 WP MM BRENDAN 1985-10-05 03:00:00 TS 33.0378 127.241 main 50 50 PPPP______P___ WP201985 32.8165 126.981 67 1 33.2048 127.040 5 65 985 2 125 100 2 250 200 33.0519 127.659 3 53 982 33.1313 127.387 T 67 982 32.8742 127.009 4 67 25 39
1985268N03161 1985 94 WP MM BRENDAN 1985-10-05 06:00:00 TS 33.9375 128.188 60 990 tokyo main 86 45 OOOO______O___ jtwc_wp WP201985 33.8000 128.000 65 1 34.0000 128.000 4 60 990 2 125 100 2 250 200 0 34.0000 128.600 3 48 985 34.0000 128.200 T 65 985 33.8000 128.000 4 65 22 45
1985268N03161 1985 94 WP MM BRENDAN 1985-10-05 09:00:00 TS 34.5936 129.129 main 45 38 _PPP______P___ WP201985 -1 34.5008 129.048 4 991 2 2 34.8250 129.561 3 38 986 34.6995 129.115 T 60 987 34.4020 128.784 4 19 51
1985268N03161 1985 94 WP MM BRENDAN 1985-10-05 12:00:00 MX 35.1462 129.977 992 tokyo main 63 58 _OOO______O___ -1 35.0000 130.000 6 992 0 0 0 35.5000 130.400 1 29 987 35.3000 130.100 STS 55 990 34.9000 129.500 5 18 46
1985268N03161 1985 94 WP MM BRENDAN 1985-10-05 15:00:00 MX 35.8385 130.703 main 101 99 _PP_______P___ -1 35.8840 130.690 6 992 0 0 36.0364 131.013 1 29 988 STS 35.5951 130.407 5 18 38
1985268N03161 1985 94 WP MM BRENDAN 1985-10-05 18:00:00 MX 36.5547 131.355 992 tokyo main 169 169 _OO_______P___ -1 36.8000 131.200 6 992 0 0 0 36.5000 131.500 1 29 990 36.3642 131.364 5 17 38
1985268N03161 1985 94 WP MM BRENDAN 1985-10-05 21:00:00 MX 37.1809 131.986 main 205 202 _PP_______P___ -1 37.4221 131.654 6 992 0 0 36.9700 132.038 1 29 991 37.1505 132.265 5 15 36
1985268N03161 1985 94 WP MM BRENDAN 1985-10-06 00:00:00 MX 37.8000 132.500 992 tokyo main 258 258 _OO_______O___ -1 38.0000 132.000 6 992 0 0 0 37.5000 132.500 1 29 992 37.9000 133.000 5 15 26
1985268N03161 1985 94 WP MM BRENDAN 1985-10-06 03:00:00 MX 38.4989 132.811 main 333 331 _PP_______P___ -1 38.7648 132.273 6 988 0 0 38.1546 132.824 1 26 993 38.5774 133.336 5 15 17
1985268N03161 1985 94 WP MM BRENDAN 1985-10-06 06:00:00 ET 39.2039 133.033 984 tokyo main 331 316 _OO_______P___ -1 39.5000 132.500 6 984 0 0 0 38.9000 133.100 9 23 995 39.2116 133.498 5 14 15
1985268N03161 1985 94 WP MM BRENDAN 1985-10-06 09:00:00 ET 39.8549 133.263 main 312 259 _PP_______P___ -1 40.0746 132.713 6 985 0 0 39.7000 133.443 9 23 995 39.7903 133.634 5 13 18
1985268N03161 1985 94 WP MM BRENDAN 1985-10-06 12:00:00 ET 40.4333 133.567 986 tokyo main 260 211 _OO_______O___ -1 40.5000 133.000 6 986 0 0 0 40.5000 133.800 9 23 995 40.3000 133.900 5 12 27
1985268N03161 1985 94 WP MM BRENDAN 1985-10-06 15:00:00 ET 40.9056 133.966 main 212 176 _PP_______P___ -1 40.7489 133.390 6 987 0 0 41.2366 134.092 9 23 995 40.7314 134.415 5 12 37
1985268N03161 1985 94 WP MM BRENDAN 1985-10-06 18:00:00 ET 41.3536 134.495 988 tokyo main 169 151 _OO_______P___ -1 41.0000 134.000 6 988 0 0 0 41.9000 134.500 9 23 996 41.0965 135.150 5 14 43
1985268N03161 1985 94 WP MM BRENDAN 1985-10-06 21:00:00 ET 41.9260 135.250 main 153 142 _PP_______P___ -1 41.5399 134.995 6 988 0 0 42.5686 135.112 9 23 996 41.4130 136.035 5 16 49
1985268N03161 1985 94 WP MM BRENDAN 1985-10-07 00:00:00 ET 42.4111 136.111 988 tokyo main 146 142 _OO_______O___ -1 42.0000 136.000 6 988 0 0 0 43.0000 136.000 9 23 996 41.7000 137.000 5 13 62
1985268N03161 1985 94 WP MM BRENDAN 1985-10-07 03:00:00 ET 42.5576 136.840 main 170 170 _PP___________ -1 42.0721 136.503 6 990 0 0 43.0431 137.177 9 23 997 5 12 91
1985268N03161 1985 94 WP MM BRENDAN 1985-10-07 06:00:00 ET 42.4000 137.750 992 tokyo main 163 74 _OO___________ -1 42.0000 137.000 6 992 0 0 0 42.8000 138.500 9 23 998 5 16 103
1985268N03161 1985 94 WP MM BRENDAN 1985-10-07 09:00:00 ET 42.1950 138.972 main 66 19 _PP___________ -1 42.0024 138.000 6 993 0 0 42.3876 139.943 9 23 998 5 16 104
1985268N03161 1985 94 WP MM BRENDAN 1985-10-07 12:00:00 ET 42.0000 139.857 994 tokyo main 13 0 _OO___________ -1 42.0000 139.000 6 994 0 0 0 42.0000 141.000 9 23 999 9 105
1985268N03161 1985 94 WP MM BRENDAN 1985-10-07 15:00:00 ET 41.9668 140.132 main 0 0 _PP___________ -1 41.9985 139.575 6 995 0 0 41.9034 141.247 9 23 994 3 90
1985268N03161 1985 94 WP MM BRENDAN 1985-10-07 18:00:00 ET 42.0000 140.200 996 tokyo main 0 0 _OO___________ -1 42.0000 140.000 6 996 0 0 0 42.0000 141.000 9 23 990 2 64
1985268N03161 1985 94 WP MM BRENDAN 1985-10-07 21:00:00 ET 42.0734 140.422 main 0 0 _P____________ -1 42.0734 140.422 6 996 0 0 9 6 90
1985268N03161 1985 94 WP MM BRENDAN 1985-10-08 00:00:00 ET 42.0000 141.000 996 tokyo main 8 8 _O____________ -1 42.0000 141.000 6 996 0 0 0 12 114
1985268N03161 1985 94 WP MM BRENDAN 1985-10-08 03:00:00 ET 41.5757 141.928 main 53 53 _P____________ -1 41.5757 141.928 6 998 0 0 18 124
1985268N03161 1985 94 WP MM BRENDAN 1985-10-08 06:00:00 ET 41.0000 143.000 1000 tokyo main 101 100 _O____________ -1 41.0000 143.000 6 1000 0 0 0 19 123
1985268N03161 1985 94 WP MM BRENDAN 1985-10-08 09:00:00 ET 40.5740 143.995 main 159 159 _P____________ -1 40.5740 143.995 6 1002 0 0 18 123
1985268N03161 1985 94 WP MM BRENDAN 1985-10-08 12:00:00 ET 40.0000 145.000 1004 tokyo main 253 253 _O____________ -1 40.0000 145.000 6 1004 0 0 0 21 134
1985268N03161 1985 94 WP MM BRENDAN 1985-10-08 15:00:00 ET 39.1018 146.008 main 337 337 _P____________ -1 39.1018 146.008 6 1006 0 0 25 142
1985268N03161 1985 94 WP MM BRENDAN 1985-10-08 18:00:00 ET 38.0000 147.000 1008 tokyo main 455 _O____________ -1 38.0000 147.000 6 1008 0 0 0 27 145

デジタル台風データ・検索

IBTrACS Databaseについて

本データベースは、米国NOAAが公開する1842年以降の世界の熱帯低気圧のベストトラックデータアーカイブInternational Best Track Archive for Climate Stewardship (IBTrACS)を、ウェブで閲覧しやすい形式に変換したものです。

最終更新日:2021-11-26